sensor_id;sensor_type;location;lat;lon;timestamp;temperature;humidity
18207;DHT22;9229;52.354;20.886;2024-01-15T00:02:18;1.10;99.90
18207;DHT22;9229;52.354;20.886;2024-01-15T00:07:24;1.10;99.90
18207;DHT22;9229;52.354;20.886;2024-01-15T00:12:26;1.10;99.90
18207;DHT22;9229;52.354;20.886;2024-01-15T00:17:28;1.10;99.90
18207;DHT22;9229;52.354;20.886;2024-01-15T00:22:32;1.10;99.90
18207;DHT22;9229;52.354;20.886;2024-01-15T00:27:36;1.10;99.90
18207;DHT22;9229;52.354;20.886;2024-01-15T00:32:38;1.10;99.90
18207;DHT22;9229;52.354;20.886;2024-01-15T00:37:44;1.10;99.90
18207;DHT22;9229;52.354;20.886;2024-01-15T00:42:46;1.10;99.90
18207;DHT22;9229;52.354;20.886;2024-01-15T00:47:48;1.10;99.90
18207;DHT22;9229;52.354;20.886;2024-01-15T00:52:52;1.10;99.90
18207;DHT22;9229;52.354;20.886;2024-01-15T00:57:54;1.10;99.90
18207;DHT22;9229;52.354;20.886;2024-01-15T01:02:56;1.10;99.90
18207;DHT22;9229;52.354;20.886;2024-01-15T01:07:59;1.10;99.90
18207;DHT22;9229;52.354;20.886;2024-01-15T01:13:02;1.10;99.90
18207;DHT22;9229;52.354;20.886;2024-01-15T01:18:04;1.10;99.90
18207;DHT22;9229;52.354;20.886;2024-01-15T01:23:08;1.10;99.90
18207;DHT22;9229;52.354;20.886;2024-01-15T01:28:10;1.00;99.90
18207;DHT22;9229;52.354;20.886;2024-01-15T01:33:11;1.00;99.90
18207;DHT22;9229;52.354;20.886;2024-01-15T01:38:15;1.00;99.90
18207;DHT22;9229;52.354;20.886;2024-01-15T01:43:17;1.00;99.90
18207;DHT22;9229;52.354;20.886;2024-01-15T01:48:21;1.00;99.90
18207;DHT22;9229;52.354;20.886;2024-01-15T01:53:27;1.00;99.90
18207;DHT22;9229;52.354;20.886;2024-01-15T01:58:30;1.00;99.90
18207;DHT22;9229;52.354;20.886;2024-01-15T02:03:33;1.00;99.90
18207;DHT22;9229;52.354;20.886;2024-01-15T02:08:37;1.00;99.90
18207;DHT22;9229;52.354;20.886;2024-01-15T02:13:39;1.00;99.90
18207;DHT22;9229;52.354;20.886;2024-01-15T02:18:42;1.00;99.90
18207;DHT22;9229;52.354;20.886;2024-01-15T02:23:45;1.00;99.90
18207;DHT22;9229;52.354;20.886;2024-01-15T02:28:51;1.00;99.90
18207;DHT22;9229;52.354;20.886;2024-01-15T02:33:53;1.00;99.90
18207;DHT22;9229;52.354;20.886;2024-01-15T02:38:57;1.00;99.90
18207;DHT22;9229;52.354;20.886;2024-01-15T02:44:00;1.00;99.90
18207;DHT22;9229;52.354;20.886;2024-01-15T02:49:02;1.00;99.90
18207;DHT22;9229;52.354;20.886;2024-01-15T02:54:06;1.00;99.90
18207;DHT22;9229;52.354;20.886;2024-01-15T02:59:08;1.00;99.90
18207;DHT22;9229;52.354;20.886;2024-01-15T03:04:10;1.00;99.90
18207;DHT22;9229;52.354;20.886;2024-01-15T03:09:13;1.00;99.90
18207;DHT22;9229;52.354;20.886;2024-01-15T03:14:15;1.00;99.90
18207;DHT22;9229;52.354;20.886;2024-01-15T03:19:18;1.00;99.90
18207;DHT22;9229;52.354;20.886;2024-01-15T03:24:22;1.00;99.90
18207;DHT22;9229;52.354;20.886;2024-01-15T03:29:25;1.00;99.90
18207;DHT22;9229;52.354;20.886;2024-01-15T03:34:27;1.00;99.90
18207;DHT22;9229;52.354;20.886;2024-01-15T03:39:32;0.90;99.90
18207;DHT22;9229;52.354;20.886;2024-01-15T03:44:34;0.80;99.90
18207;DHT22;9229;52.354;20.886;2024-01-15T03:49:36;0.90;99.90
18207;DHT22;9229;52.354;20.886;2024-01-15T03:54:40;0.90;99.90
18207;DHT22;9229;52.354;20.886;2024-01-15T03:59:42;0.90;99.90
18207;DHT22;9229;52.354;20.886;2024-01-15T04:04:44;0.90;99.90
18207;DHT22;9229;52.354;20.886;2024-01-15T04:09:48;0.90;99.90
18207;DHT22;9229;52.354;20.886;2024-01-15T04:14:50;1.00;99.90
18207;DHT22;9229;52.354;20.886;2024-01-15T04:19:52;0.90;99.90
18207;DHT22;9229;52.354;20.886;2024-01-15T04:24:55;1.00;99.90
18207;DHT22;9229;52.354;20.886;2024-01-15T04:29:58;1.00;99.90
18207;DHT22;9229;52.354;20.886;2024-01-15T04:35:03;1.00;99.90
18207;DHT22;9229;52.354;20.886;2024-01-15T04:40:08;1.00;99.90
18207;DHT22;9229;52.354;20.886;2024-01-15T04:45:10;1.00;99.90
18207;DHT22;9229;52.354;20.886;2024-01-15T04:50:12;1.00;99.90
18207;DHT22;9229;52.354;20.886;2024-01-15T04:55:16;1.00;99.90
18207;DHT22;9229;52.354;20.886;2024-01-15T05:00:18;1.00;99.90
18207;DHT22;9229;52.354;20.886;2024-01-15T05:05:20;1.00;99.90
18207;DHT22;9229;52.354;20.886;2024-01-15T05:10:24;1.00;99.90
18207;DHT22;9229;52.354;20.886;2024-01-15T05:15:26;1.00;99.90
18207;DHT22;9229;52.354;20.886;2024-01-15T05:20:28;1.00;99.90
18207;DHT22;9229;52.354;20.886;2024-01-15T05:25:31;1.00;99.90
18207;DHT22;9229;52.354;20.886;2024-01-15T05:30:33;1.00;99.90
18207;DHT22;9229;52.354;20.886;2024-01-15T05:35:35;1.10;99.90
18207;DHT22;9229;52.354;20.886;2024-01-15T05:40:39;1.10;99.90
18207;DHT22;9229;52.354;20.886;2024-01-15T05:45:43;1.10;99.90
18207;DHT22;9229;52.354;20.886;2024-01-15T05:50:46;1.10;99.90
18207;DHT22;9229;52.354;20.886;2024-01-15T05:55:49;1.10;99.90
18207;DHT22;9229;52.354;20.886;2024-01-15T06:00:51;1.10;99.90
18207;DHT22;9229;52.354;20.886;2024-01-15T06:05:53;1.10;99.90
18207;DHT22;9229;52.354;20.886;2024-01-15T06:10:57;1.10;99.90
18207;DHT22;9229;52.354;20.886;2024-01-15T06:16:11;1.10;99.90
18207;DHT22;9229;52.354;20.886;2024-01-15T06:21:13;1.10;99.90
18207;DHT22;9229;52.354;20.886;2024-01-15T06:26:18;1.10;99.90
18207;DHT22;9229;52.354;20.886;2024-01-15T06:31:20;1.10;99.90
18207;DHT22;9229;52.354;20.886;2024-01-15T06:36:22;1.10;99.90
18207;DHT22;9229;52.354;20.886;2024-01-15T06:41:26;1.00;99.90
18207;DHT22;9229;52.354;20.886;2024-01-15T06:46:29;1.00;99.90
18207;DHT22;9229;52.354;20.886;2024-01-15T06:51:35;1.10;99.90
18207;DHT22;9229;52.354;20.886;2024-01-15T06:56:40;1.00;99.90
18207;DHT22;9229;52.354;20.886;2024-01-15T07:01:43;1.00;99.90
18207;DHT22;9229;52.354;20.886;2024-01-15T07:06:47;1.00;99.90
18207;DHT22;9229;52.354;20.886;2024-01-15T07:11:50;1.00;99.90
18207;DHT22;9229;52.354;20.886;2024-01-15T07:16:52;1.00;99.90
18207;DHT22;9229;52.354;20.886;2024-01-15T07:21:54;1.00;99.90
18207;DHT22;9229;52.354;20.886;2024-01-15T07:26:59;0.90;99.90
18207;DHT22;9229;52.354;20.886;2024-01-15T07:32:01;1.00;99.90
18207;DHT22;9229;52.354;20.886;2024-01-15T07:37:03;1.00;99.90
18207;DHT22;9229;52.354;20.886;2024-01-15T07:42:07;1.00;99.90
18207;DHT22;9229;52.354;20.886;2024-01-15T07:47:09;1.00;99.90
18207;DHT22;9229;52.354;20.886;2024-01-15T07:52:11;1.00;99.90
18207;DHT22;9229;52.354;20.886;2024-01-15T07:57:17;1.00;99.90
18207;DHT22;9229;52.354;20.886;2024-01-15T08:02:19;1.00;99.90
18207;DHT22;9229;52.354;20.886;2024-01-15T08:07:22;1.00;99.90
18207;DHT22;9229;52.354;20.886;2024-01-15T08:12:26;1.10;99.90
18207;DHT22;9229;52.354;20.886;2024-01-15T08:17:28;1.10;99.90
18207;DHT22;9229;52.354;20.886;2024-01-15T08:22:30;1.10;99.90
18207;DHT22;9229;52.354;20.886;2024-01-15T08:27:33;1.10;99.90
18207;DHT22;9229;52.354;20.886;2024-01-15T08:32:35;1.10;99.90
18207;DHT22;9229;52.354;20.886;2024-01-15T08:37:41;1.20;99.90
18207;DHT22;9229;52.354;20.886;2024-01-15T08:42:45;1.10;99.90
18207;DHT22;9229;52.354;20.886;2024-01-15T08:47:49;1.30;99.90
18207;DHT22;9229;52.354;20.886;2024-01-15T08:52:52;1.30;99.90
18207;DHT22;9229;52.354;20.886;2024-01-15T08:57:56;1.30;99.90
18207;DHT22;9229;52.354;20.886;2024-01-15T09:02:58;1.50;99.90
18207;DHT22;9229;52.354;20.886;2024-01-15T09:08:00;1.60;99.90
18207;DHT22;9229;52.354;20.886;2024-01-15T09:13:04;1.60;99.90
18207;DHT22;9229;52.354;20.886;2024-01-15T09:18:06;1.60;99.90
18207;DHT22;9229;52.354;20.886;2024-01-15T09:23:08;1.60;99.90
18207;DHT22;9229;52.354;20.886;2024-01-15T09:28:12;1.70;99.90
18207;DHT22;9229;52.354;20.886;2024-01-15T09:33:14;1.70;99.90
18207;DHT22;9229;52.354;20.886;2024-01-15T09:38:17;1.70;99.90
18207;DHT22;9229;52.354;20.886;2024-01-15T09:43:21;1.80;99.90
18207;DHT22;9229;52.354;20.886;2024-01-15T09:48:24;1.90;99.90
18207;DHT22;9229;52.354;20.886;2024-01-15T09:53:26;1.90;99.90
18207;DHT22;9229;52.354;20.886;2024-01-15T09:58:29;1.80;99.90
18207;DHT22;9229;52.354;20.886;2024-01-15T10:03:33;1.90;99.90
18207;DHT22;9229;52.354;20.886;2024-01-15T10:08:36;2.00;99.90
18207;DHT22;9229;52.354;20.886;2024-01-15T10:13:43;2.00;99.90
18207;DHT22;9229;52.354;20.886;2024-01-15T10:18:45;2.00;99.90
18207;DHT22;9229;52.354;20.886;2024-01-15T10:23:47;2.10;99.90
18207;DHT22;9229;52.354;20.886;2024-01-15T10:28:52;2.10;99.90
18207;DHT22;9229;52.354;20.886;2024-01-15T10:33:55;2.10;99.90
18207;DHT22;9229;52.354;20.886;2024-01-15T10:39:04;2.20;99.90
18207;DHT22;9229;52.354;20.886;2024-01-15T10:44:10;2.30;99.90
18207;DHT22;9229;52.354;20.886;2024-01-15T10:49:12;2.40;99.90
18207;DHT22;9229;52.354;20.886;2024-01-15T10:54:14;2.50;99.90
18207;DHT22;9229;52.354;20.886;2024-01-15T10:59:19;2.60;99.90
18207;DHT22;9229;52.354;20.886;2024-01-15T11:04:22;2.50;99.90
18207;DHT22;9229;52.354;20.886;2024-01-15T11:09:27;2.50;99.90
18207;DHT22;9229;52.354;20.886;2024-01-15T11:14:35;2.40;99.90
18207;DHT22;9229;52.354;20.886;2024-01-15T11:19:43;2.40;99.90
18207;DHT22;9229;52.354;20.886;2024-01-15T11:24:46;2.40;99.90
18207;DHT22;9229;52.354;20.886;2024-01-15T11:30:03;2.50;99.90
18207;DHT22;9229;52.354;20.886;2024-01-15T11:35:05;2.60;99.90
18207;DHT22;9229;52.354;20.886;2024-01-15T11:40:09;2.60;99.90
18207;DHT22;9229;52.354;20.886;2024-01-15T11:45:16;2.40;99.90
18207;DHT22;9229;52.354;20.886;2024-01-15T11:50:20;2.30;99.90
18207;DHT22;9229;52.354;20.886;2024-01-15T11:55:27;2.10;99.90
18207;DHT22;9229;52.354;20.886;2024-01-15T12:00:32;2.20;99.90
18207;DHT22;9229;52.354;20.886;2024-01-15T12:05:37;2.20;99.90
18207;DHT22;9229;52.354;20.886;2024-01-15T12:10:40;2.10;99.90
18207;DHT22;9229;52.354;20.886;2024-01-15T12:15:44;2.10;99.90
18207;DHT22;9229;52.354;20.886;2024-01-15T12:20:46;2.20;99.90
18207;DHT22;9229;52.354;20.886;2024-01-15T12:25:49;2.00;99.90
18207;DHT22;9229;52.354;20.886;2024-01-15T12:30:52;2.00;99.90
18207;DHT22;9229;52.354;20.886;2024-01-15T12:35:55;1.90;99.90
18207;DHT22;9229;52.354;20.886;2024-01-15T12:40:57;1.70;99.90
18207;DHT22;9229;52.354;20.886;2024-01-15T12:46:01;1.70;99.90
18207;DHT22;9229;52.354;20.886;2024-01-15T12:51:06;1.60;99.90
18207;DHT22;9229;52.354;20.886;2024-01-15T12:56:08;1.60;99.90
18207;DHT22;9229;52.354;20.886;2024-01-15T13:01:16;1.50;99.90
18207;DHT22;9229;52.354;20.886;2024-01-15T13:06:18;1.50;99.90
18207;DHT22;9229;52.354;20.886;2024-01-15T13:11:20;1.40;99.90
18207;DHT22;9229;52.354;20.886;2024-01-15T13:16:24;1.30;99.90
18207;DHT22;9229;52.354;20.886;2024-01-15T13:21:27;1.30;99.90
18207;DHT22;9229;52.354;20.886;2024-01-15T13:26:32;1.30;99.90
18207;DHT22;9229;52.354;20.886;2024-01-15T13:31:38;1.30;99.90
18207;DHT22;9229;52.354;20.886;2024-01-15T13:36:40;1.30;99.90
18207;DHT22;9229;52.354;20.886;2024-01-15T13:41:42;1.30;99.90
18207;DHT22;9229;52.354;20.886;2024-01-15T13:46:46;1.40;99.90
18207;DHT22;9229;52.354;20.886;2024-01-15T13:51:48;1.40;99.90
18207;DHT22;9229;52.354;20.886;2024-01-15T13:56:50;1.40;99.90
18207;DHT22;9229;52.354;20.886;2024-01-15T14:01:56;1.50;99.90
18207;DHT22;9229;52.354;20.886;2024-01-15T14:07:00;1.40;99.90
18207;DHT22;9229;52.354;20.886;2024-01-15T14:12:06;1.50;99.90
18207;DHT22;9229;52.354;20.886;2024-01-15T14:17:09;1.50;99.90
18207;DHT22;9229;52.354;20.886;2024-01-15T14:22:17;1.50;99.90
18207;DHT22;9229;52.354;20.886;2024-01-15T14:27:24;1.50;99.90
18207;DHT22;9229;52.354;20.886;2024-01-15T14:32:28;1.50;99.90
18207;DHT22;9229;52.354;20.886;2024-01-15T14:37:33;1.50;99.90
18207;DHT22;9229;52.354;20.886;2024-01-15T14:42:35;1.50;99.90
18207;DHT22;9229;52.354;20.886;2024-01-15T14:47:39;1.50;99.90
18207;DHT22;9229;52.354;20.886;2024-01-15T14:52:41;1.60;99.90
18207;DHT22;9229;52.354;20.886;2024-01-15T14:57:48;1.90;99.90
18207;DHT22;9229;52.354;20.886;2024-01-15T15:02:51;1.80;99.90
18207;DHT22;9229;52.354;20.886;2024-01-15T15:07:54;1.40;99.90
18207;DHT22;9229;52.354;20.886;2024-01-15T15:12:56;1.20;99.90
18207;DHT22;9229;52.354;20.886;2024-01-15T15:17:59;1.20;99.90
18207;DHT22;9229;52.354;20.886;2024-01-15T15:23:03;1.20;99.90
18207;DHT22;9229;52.354;20.886;2024-01-15T15:28:09;1.10;99.90
18207;DHT22;9229;52.354;20.886;2024-01-15T15:33:13;1.10;99.90
18207;DHT22;9229;52.354;20.886;2024-01-15T15:38:18;1.10;99.90
18207;DHT22;9229;52.354;20.886;2024-01-15T15:43:20;1.10;99.90
18207;DHT22;9229;52.354;20.886;2024-01-15T15:48:24;1.20;99.90
18207;DHT22;9229;52.354;20.886;2024-01-15T15:53:29;1.10;99.90
18207;DHT22;9229;52.354;20.886;2024-01-15T15:58:31;1.10;99.90
18207;DHT22;9229;52.354;20.886;2024-01-15T16:03:34;1.30;99.90
18207;DHT22;9229;52.354;20.886;2024-01-15T16:08:36;1.30;99.90
18207;DHT22;9229;52.354;20.886;2024-01-15T16:18:49;1.20;99.90
18207;DHT22;9229;52.354;20.886;2024-01-15T16:23:58;1.20;99.90
18207;DHT22;9229;52.354;20.886;2024-01-15T16:29:03;1.00;99.90
18207;DHT22;9229;52.354;20.886;2024-01-15T16:34:07;0.90;99.90
18207;DHT22;9229;52.354;20.886;2024-01-15T16:39:09;0.80;99.90
18207;DHT22;9229;52.354;20.886;2024-01-15T16:49:19;0.50;99.90
18207;DHT22;9229;52.354;20.886;2024-01-15T16:59:25;0.40;99.90
18207;DHT22;9229;52.354;20.886;2024-01-15T17:09:30;0.40;99.90
18207;DHT22;9229;52.354;20.886;2024-01-15T17:14:32;0.50;99.90
18207;DHT22;9229;52.354;20.886;2024-01-15T17:19:35;0.40;99.90
18207;DHT22;9229;52.354;20.886;2024-01-15T17:24:37;0.40;99.90
18207;DHT22;9229;52.354;20.886;2024-01-15T17:29:39;0.40;99.90
18207;DHT22;9229;52.354;20.886;2024-01-15T17:34:43;0.50;99.90
18207;DHT22;9229;52.354;20.886;2024-01-15T17:39:47;0.50;99.90
18207;DHT22;9229;52.354;20.886;2024-01-15T17:44:50;0.50;99.90
18207;DHT22;9229;52.354;20.886;2024-01-15T17:49:55;0.50;99.90
18207;DHT22;9229;52.354;20.886;2024-01-15T17:54:57;0.50;99.90
18207;DHT22;9229;52.354;20.886;2024-01-15T18:05:03;0.50;99.90
18207;DHT22;9229;52.354;20.886;2024-01-15T18:10:06;0.50;99.90
18207;DHT22;9229;52.354;20.886;2024-01-15T18:15:09;0.30;99.90
18207;DHT22;9229;52.354;20.886;2024-01-15T18:20:13;0.20;99.90
18207;DHT22;9229;52.354;20.886;2024-01-15T18:25:15;0.10;99.90
18207;DHT22;9229;52.354;20.886;2024-01-15T18:35:21;0.00;99.90
18207;DHT22;9229;52.354;20.886;2024-01-15T18:50:32;-0.20;99.90
18207;DHT22;9229;52.354;20.886;2024-01-15T19:05:42;-0.20;99.90
18207;DHT22;9229;52.354;20.886;2024-01-15T19:10:44;-0.60;99.90
18207;DHT22;9229;52.354;20.886;2024-01-15T19:15:47;-0.20;99.90
18207;DHT22;9229;52.354;20.886;2024-01-15T19:20:53;-0.20;99.90
18207;DHT22;9229;52.354;20.886;2024-01-15T19:25:57;-0.20;99.90
18207;DHT22;9229;52.354;20.886;2024-01-15T19:31:00;0.60;99.90
18207;DHT22;9229;52.354;20.886;2024-01-15T19:36:04;-0.20;99.90
18207;DHT22;9229;52.354;20.886;2024-01-15T19:41:06;-0.10;99.90
18207;DHT22;9229;52.354;20.886;2024-01-15T19:46:08;-0.10;99.90
18207;DHT22;9229;52.354;20.886;2024-01-15T19:51:17;-0.20;99.90
18207;DHT22;9229;52.354;20.886;2024-01-15T19:56:21;-0.20;99.90
18207;DHT22;9229;52.354;20.886;2024-01-15T20:01:23;-0.20;99.90
18207;DHT22;9229;52.354;20.886;2024-01-15T20:06:28;-0.30;99.90
18207;DHT22;9229;52.354;20.886;2024-01-15T20:11:30;-0.30;99.90
18207;DHT22;9229;52.354;20.886;2024-01-15T20:16:32;-0.30;99.90
18207;DHT22;9229;52.354;20.886;2024-01-15T20:21:35;-0.40;99.90
18207;DHT22;9229;52.354;20.886;2024-01-15T20:26:37;-0.40;99.90
18207;DHT22;9229;52.354;20.886;2024-01-15T20:31:39;-0.40;99.90
18207;DHT22;9229;52.354;20.886;2024-01-15T20:36:45;-0.40;99.90
18207;DHT22;9229;52.354;20.886;2024-01-15T20:41:48;-0.50;99.90
18207;DHT22;9229;52.354;20.886;2024-01-15T20:46:52;-0.50;99.90
18207;DHT22;9229;52.354;20.886;2024-01-15T20:51:56;-0.50;99.90
18207;DHT22;9229;52.354;20.886;2024-01-15T20:57:00;-0.20;99.90
18207;DHT22;9229;52.354;20.886;2024-01-15T21:07:08;-0.60;99.90
18207;DHT22;9229;52.354;20.886;2024-01-15T21:12:10;-0.60;99.90
18207;DHT22;9229;52.354;20.886;2024-01-15T21:17:12;-0.60;99.90
18207;DHT22;9229;52.354;20.886;2024-01-15T21:22:16;-0.70;99.90
18207;DHT22;9229;52.354;20.886;2024-01-15T21:27:19;-0.70;99.90
18207;DHT22;9229;52.354;20.886;2024-01-15T21:32:21;-0.70;99.90
18207;DHT22;9229;52.354;20.886;2024-01-15T21:37:26;-0.70;99.90
18207;DHT22;9229;52.354;20.886;2024-01-15T21:42:32;-0.70;99.90
18207;DHT22;9229;52.354;20.886;2024-01-15T21:47:38;-0.80;99.90
18207;DHT22;9229;52.354;20.886;2024-01-15T21:52:42;-0.80;99.90
18207;DHT22;9229;52.354;20.886;2024-01-15T21:57:44;-0.80;99.90
18207;DHT22;9229;52.354;20.886;2024-01-15T22:02:46;-0.90;99.90
18207;DHT22;9229;52.354;20.886;2024-01-15T22:07:52;-0.90;99.90
18207;DHT22;9229;52.354;20.886;2024-01-15T22:12:55;-0.90;99.90
18207;DHT22;9229;52.354;20.886;2024-01-15T22:23:05;-0.90;99.90
18207;DHT22;9229;52.354;20.886;2024-01-15T22:28:07;-0.90;99.90
18207;DHT22;9229;52.354;20.886;2024-01-15T22:33:09;-0.90;99.90
18207;DHT22;9229;52.354;20.886;2024-01-15T22:38:24;-1.00;99.90
18207;DHT22;9229;52.354;20.886;2024-01-15T22:43:26;-1.10;99.90
18207;DHT22;9229;52.354;20.886;2024-01-15T22:53:36;-1.20;99.90
18207;DHT22;9229;52.354;20.886;2024-01-15T23:08:45;-1.20;99.90
18207;DHT22;9229;52.354;20.886;2024-01-15T23:13:47;-1.20;99.90
18207;DHT22;9229;52.354;20.886;2024-01-15T23:18:49;-1.20;99.90
18207;DHT22;9229;52.354;20.886;2024-01-15T23:23:53;-1.20;99.90
18207;DHT22;9229;52.354;20.886;2024-01-15T23:28:57;-1.20;99.90
18207;DHT22;9229;52.354;20.886;2024-01-15T23:33:59;-1.20;99.90
18207;DHT22;9229;52.354;20.886;2024-01-15T23:39:03;-1.10;99.90
18207;DHT22;9229;52.354;20.886;2024-01-15T23:44:09;-1.20;99.90
18207;DHT22;9229;52.354;20.886;2024-01-15T23:49:17;-1.20;99.90
18207;DHT22;9229;52.354;20.886;2024-01-15T23:54:21;-1.10;99.90
